KFLL/FLL METAR and TAF weather

Enter ICAO airport designator
Station Type Date Time Source
KFLL METAR 2019/09/21 20:53 UTC NOAA

KFLL 212053Z 07017G25KT 10SM SCT027 SCT036 BKN065 BKN220 29/23 A3000 RMK AO2 PK WND 04028/2003 SLP158 T02890228 58015


Station Type Date Time Source
KFLL Decoded METAR 2019/09/21 20:53 UTC NOAA

FORT LAUDERDALE/HOLLYWOOD, FL, United States (KFLL) 26-04N 080-09W 30M
Sep 21, 2019 - 04:53 PM EDT / 2019.09.21 2053 UTC
Wind: from the ENE (070 degrees) at 20 MPH (17 KT) gusting to 29 MPH (25 KT):0
Visibility: 10 mile(s):0
Sky conditions: mostly cloudy
Temperature: 84.0 F (28.9 C)
Dew Point: 73.0 F (22.8 C)
Relative Humidity: 69%
Pressure (altimeter): 30 in. Hg (1015 hPa)
Pressure tendency: 0.04 inches (1.5 hPa) lower than three hours ago
ob: KFLL 212053Z 07017G25KT 10SM SCT027 SCT036 BKN065 BKN220 29/23 A3000 RMK AO2 PK WND 04028/2003 SLP158 T02890228 58015
cycle: 21

Station Type Date Time Source
KFLL TAF 2019/09/21 21:32 UTC NOAA

TAF
AMD KFLL 212127Z 2121/2224 06015G25KT P6SM SCT027 SCT035 BKN060
FM220400 07015G25KT P6SM VCSH SCT025 BKN050
FM221400 08015G25KT P6SM SCT025 BKN050

Example: see airport list